CEE6 weather

Edmonton / Twin Island Airpark
Edmonton, Alberta, Canada

Public forecast

Using degrees Celsius for public forecast. Weather courtesy of forecast.io.

Closest aviation weather report (METAR) to Edmonton / Twin Island Airpark

Report is more than 6 hours old.

Closest report is Edmonton City Centre (Blatchford Field) Airport, 14.4 nm (26.8 km) WNW. Retrieved 2015/04/01 14:00 UTC (5 years ago):

CYXD 011400Z AUTO 28020G29KT 1 3/4SM -UP OVC009 01/M00 A2952 RMK SLP019

Closest aviation forecast (TAF) to Edmonton / Twin Island Airpark

Forecast is more than 12 hours old.

Closest forecast is Edmonton City Centre (Blatchford Field) Airport, 14.4 nm (26.8 km) WNW. Retrieved 2013/11/30 18:00 UTC (6 years ago):

TAF CYXD 301738Z 3018/3024 20006KT P6SM BKN230 FM301900 29006KT P6SM SCT020 BKN050 TEMPO 3019/3024 3SM -SN BKN020 PROB40 3020/3024 3SM -SN -PL RMK FCST BASED ON AUTO OBS. FCST PROGRAM PERMANENTLY TERMINATED AT 010000Z